WetterOnline ( https://www.wetteronline.de )

Wetter aktuell Longuich

Aktuelles Wetter: Trier/Petrisberg (273m)

6-stündlich | Neueste Meldungen
Ortszeit Temperatur Wetter
Di, 17.09. 2:00 16.5° C bewölkt
Mo, 16.09. 20:00 20.1° C bedeckt
Mo, 16.09. 14:00 22.1° C bedeckt
Mo, 16.09. 8:00 9.5° C bewölkt
Mo, 16.09. 2:00 13.3° C wolkenlos
So, 15.09. 20:00 22.9° C fast wolkenlos
So, 15.09. 14:00 24.7° C wolkenlos
So, 15.09. 8:00 9.2° C wolkenlos
Ortszeit Temperatur Wetter
Di, 17.09. 4:00 14.6° C bewölkt
Di, 17.09. 3:40 14.7° C bewölkt
Di, 17.09. 3:30 14.9° C bewölkt
Di, 17.09. 3:20 14.9° C bewölkt
Di, 17.09. 3:10 15.2° C bewölkt
Di, 17.09. 3:00 15.5° C bewölkt
Di, 17.09. 2:50 15.5° C bewölkt
Di, 17.09. 2:30 15.9° C bedeckt
Di, 17.09. 2:00 16.5° C bewölkt
Ortszeit Relative Feuchte Sichtweite
Di, 17.09. 2:00 77% 45 km
Mo, 16.09. 20:00 55% 70 km
Mo, 16.09. 14:00 43% 70 km
Mo, 16.09. 8:00 90% 45 km
Mo, 16.09. 2:00 75% 70 km
So, 15.09. 20:00 44% 70 km
So, 15.09. 14:00 41% 70 km
So, 15.09. 8:00 93% 45 km
Ortszeit Relative Feuchte Sichtweite
Di, 17.09. 4:00 80% 70 km
Di, 17.09. 3:40 80% -
Di, 17.09. 3:30 80% 70 km
Di, 17.09. 3:20 80% -
Di, 17.09. 3:10 80% -
Di, 17.09. 3:00 80% 70 km
Di, 17.09. 2:50 80% -
Di, 17.09. 2:30 80% 70 km
Di, 17.09. 2:00 77% 45 km
Ortszeit Niederschlagsmenge Niederschlagsart
Di, 17.09. 2:00 0.1 l/m2 in 6 Std. Regen
Mo, 16.09. 20:00 0.0 l/m2 in 12 Std. -
Mo, 16.09. 14:00 0.0 l/m2 in 6 Std. -
Mo, 16.09. 8:00 0.0 l/m2 in 12 Std. -
Mo, 16.09. 2:00 0.0 l/m2 in 6 Std. -
So, 15.09. 20:00 0.0 l/m2 in 12 Std. -
So, 15.09. 14:00 0.0 l/m2 in 6 Std. -
So, 15.09. 8:00 0.0 l/m2 in 12 Std. -
Ortszeit Niederschlagsmenge Niederschlagsart
Di, 17.09. 4:00 0.0 l/m2 in 1 Std. -
Di, 17.09. 3:40 keine Meldung -
Di, 17.09. 3:30 0.0 l/m2 in 1 Std. -
Di, 17.09. 3:20 keine Meldung -
Di, 17.09. 3:10 keine Meldung -
Di, 17.09. 3:00 0.0 l/m2 in 1 Std. -
Di, 17.09. 2:50 keine Meldung -
Di, 17.09. 2:30 0.0 l/m2 in 1 Std. -
Di, 17.09. 2:00 0.0 l/m2 in 1 Std. Regen
Ortszeit Stärke Spitze Richtung
km/h Bft. km/h Grad Sektor
Di, 17.09. 2:00 11 2 26 30° NO
Mo, 16.09. 20:00 6 1 20 350° N
Mo, 16.09. 14:00 6 1 17 220° SW
Mo, 16.09. 8:00 4 1 14 10° N
Mo, 16.09. 2:00 7 2 22 30° NO
So, 15.09. 20:00 6 1 24 220° SW
So, 15.09. 14:00 11 2 22 210° SW
So, 15.09. 8:00 4 1 14 10° N
Ortszeit Stärke Spitze Richtung
km/h Bft. km/h Grad Sektor
Di, 17.09. 4:00 11 2 26 20° N
Di, 17.09. 3:40 11 2 - 30° NO
Di, 17.09. 3:30 14 3 25 20° N
Di, 17.09. 3:20 14 3 - 20° N
Di, 17.09. 3:10 14 3 - 30° NO
Di, 17.09. 3:00 18 3 29 30° NO
Di, 17.09. 2:50 18 3 - 30° NO
Di, 17.09. 2:30 14 3 22 30° NO
Di, 17.09. 2:00 11 2 20 30° NO
Ortszeit Untergrenze Bedeckung Gattung
total tief tief mittel hoch
Di, 17.09. 2:00 540 m 7/8 7/8 - - -
Mo, 16.09. 20:00 2400 m 8/8 8/8 - - -
Mo, 16.09. 14:00 4500 m 8/8 8/8 - - -
Mo, 16.09. 8:00 6300 m 8/8 5/8 - - -
Mo, 16.09. 2:00 - 0/8 0/8 - - -
So, 15.09. 20:00 10500 m 1/8 0/8 - - -
So, 15.09. 14:00 - 0/8 0/8 - - -
So, 15.09. 8:00 - 0/8 0/8 - - -
Ortszeit Bedeckungsgrad in Achtel und Wolkenuntergrenze
Di, 17.09. 4:00 1(450m) 7(720m)
Di, 17.09. 3:40 4(420m) 7(690m)
Di, 17.09. 3:30 7(390m) 7(630m)
Di, 17.09. 3:20 7(390m)
Di, 17.09. 3:10 7(390m)
Di, 17.09. 3:00 7(390m) 7(810m) 7(1800m)
Di, 17.09. 2:50 7(390m) 7(810m) 7(1800m)
Di, 17.09. 2:30 1(510m) 5(1440m) 8(1800m)
Di, 17.09. 2:00 3(540m) 7(780m) 7(1440m)
Ortszeit Luftdruck NN (hPa) Tendenz (hPa in 3 Std.)
Di, 17.09. 2:00 1020 + 0,4
Mo, 16.09. 20:00 1019 + 0,3
Mo, 16.09. 14:00 1020 - 0,9
Mo, 16.09. 8:00 1022 - 0,6
Mo, 16.09. 2:00 1022 - 0,5
So, 15.09. 20:00 1021 - 0,5
So, 15.09. 14:00 1023 - 1,2
So, 15.09. 8:00 1027 0,0
Ortszeit Luftdruck NN (hPa) Tendenz (hPa in 3 Std.)
Di, 17.09. 4:00 1021 + 0,4
Di, 17.09. 3:40 1021 keine Meldung
Di, 17.09. 3:30 1020 + 0,3
Di, 17.09. 3:20 1020 keine Meldung
Di, 17.09. 3:10 1020 keine Meldung
Di, 17.09. 3:00 1020 + 0,2
Di, 17.09. 2:50 1020 keine Meldung
Di, 17.09. 2:30 1020 + 0,2
Di, 17.09. 2:00 1020 + 0,4
Ortszeit Schneehöhe (cm)
Di, 17.09. 2:00 -
Mo, 16.09. 20:00 -
Mo, 16.09. 14:00 -
Mo, 16.09. 8:00 -
Mo, 16.09. 2:00 -
So, 15.09. 20:00 -
So, 15.09. 14:00 -
So, 15.09. 8:00 -
Ortszeit Schneehöhe (cm)
Di, 17.09. 4:00 -
Di, 17.09. 3:40 -
Di, 17.09. 3:30 -
Di, 17.09. 3:20 -
Di, 17.09. 3:10 -
Di, 17.09. 3:00 -
Di, 17.09. 2:50 -
Di, 17.09. 2:30 -
Di, 17.09. 2:00 -
Link zu dieser Seite / Seite empfehlen

Das Wetter in ...